sensor_id;sensor_type;location;lat;lon;timestamp;temperature;humidity
15131;DHT22;7666;50.920;4.628;2023-04-24T00:01:29;10.00;99.90
15131;DHT22;7666;50.920;4.628;2023-04-24T00:04:17;10.00;99.90
15131;DHT22;7666;50.920;4.628;2023-04-24T00:07:03;10.00;99.90
15131;DHT22;7666;50.920;4.628;2023-04-24T00:09:49;10.00;99.90
15131;DHT22;7666;50.920;4.628;2023-04-24T00:12:35;10.00;99.90
15131;DHT22;7666;50.920;4.628;2023-04-24T00:15:21;10.00;99.90
15131;DHT22;7666;50.920;4.628;2023-04-24T00:18:07;10.00;99.90
15131;DHT22;7666;50.920;4.628;2023-04-24T00:20:53;10.00;99.90
15131;DHT22;7666;50.920;4.628;2023-04-24T00:23:39;10.00;99.90
15131;DHT22;7666;50.920;4.628;2023-04-24T00:26:25;10.00;99.90
15131;DHT22;7666;50.920;4.628;2023-04-24T00:29:11;10.00;99.90
15131;DHT22;7666;50.920;4.628;2023-04-24T00:31:57;10.00;99.90
15131;DHT22;7666;50.920;4.628;2023-04-24T00:34:43;10.00;99.90
15131;DHT22;7666;50.920;4.628;2023-04-24T00:37:29;10.00;99.90
15131;DHT22;7666;50.920;4.628;2023-04-24T00:40:15;10.00;99.90
15131;DHT22;7666;50.920;4.628;2023-04-24T00:43:01;9.90;99.90
15131;DHT22;7666;50.920;4.628;2023-04-24T00:45:47;9.90;99.90
15131;DHT22;7666;50.920;4.628;2023-04-24T00:48:34;9.90;99.90
15131;DHT22;7666;50.920;4.628;2023-04-24T00:51:20;9.80;99.90
15131;DHT22;7666;50.920;4.628;2023-04-24T00:54:06;9.80;99.90
15131;DHT22;7666;50.920;4.628;2023-04-24T00:56:52;9.80;99.90
15131;DHT22;7666;50.920;4.628;2023-04-24T00:59:39;9.80;99.90
15131;DHT22;7666;50.920;4.628;2023-04-24T01:02:26;9.70;99.90
15131;DHT22;7666;50.920;4.628;2023-04-24T01:05:13;9.70;99.90
15131;DHT22;7666;50.920;4.628;2023-04-24T01:08:01;9.70;99.90
15131;DHT22;7666;50.920;4.628;2023-04-24T01:10:49;9.70;99.90
15131;DHT22;7666;50.920;4.628;2023-04-24T01:13:36;9.70;99.90
15131;DHT22;7666;50.920;4.628;2023-04-24T01:16:22;9.70;99.90
15131;DHT22;7666;50.920;4.628;2023-04-24T01:19:10;9.70;99.90
15131;DHT22;7666;50.920;4.628;2023-04-24T01:21:58;9.70;99.90
15131;DHT22;7666;50.920;4.628;2023-04-24T01:24:45;9.70;99.90
15131;DHT22;7666;50.920;4.628;2023-04-24T01:27:31;9.60;99.90
15131;DHT22;7666;50.920;4.628;2023-04-24T01:30:17;9.60;99.90
15131;DHT22;7666;50.920;4.628;2023-04-24T01:33:03;9.60;99.90
15131;DHT22;7666;50.920;4.628;2023-04-24T01:35:49;9.60;99.90
15131;DHT22;7666;50.920;4.628;2023-04-24T01:38:36;9.60;99.90
15131;DHT22;7666;50.920;4.628;2023-04-24T01:41:22;9.60;99.90
15131;DHT22;7666;50.920;4.628;2023-04-24T01:44:09;9.60;99.90
15131;DHT22;7666;50.920;4.628;2023-04-24T01:46:55;9.60;99.90
15131;DHT22;7666;50.920;4.628;2023-04-24T01:49:41;9.60;99.90
15131;DHT22;7666;50.920;4.628;2023-04-24T01:52:27;9.60;99.90
15131;DHT22;7666;50.920;4.628;2023-04-24T01:55:16;9.60;99.90
15131;DHT22;7666;50.920;4.628;2023-04-24T01:58:02;9.60;99.90
15131;DHT22;7666;50.920;4.628;2023-04-24T02:00:48;9.50;99.90
15131;DHT22;7666;50.920;4.628;2023-04-24T02:03:35;9.50;99.90
15131;DHT22;7666;50.920;4.628;2023-04-24T02:06:21;9.50;99.90
15131;DHT22;7666;50.920;4.628;2023-04-24T02:09:07;9.50;99.90
15131;DHT22;7666;50.920;4.628;2023-04-24T02:11:53;9.40;99.90
15131;DHT22;7666;50.920;4.628;2023-04-24T02:14:39;9.40;99.90
15131;DHT22;7666;50.920;4.628;2023-04-24T02:17:26;9.40;99.90
15131;DHT22;7666;50.920;4.628;2023-04-24T02:20:12;9.40;99.90
15131;DHT22;7666;50.920;4.628;2023-04-24T02:22:58;9.40;99.90
15131;DHT22;7666;50.920;4.628;2023-04-24T02:25:44;9.40;99.90
15131;DHT22;7666;50.920;4.628;2023-04-24T02:28:30;9.40;99.90
15131;DHT22;7666;50.920;4.628;2023-04-24T02:31:16;9.40;99.90
15131;DHT22;7666;50.920;4.628;2023-04-24T02:34:02;9.40;99.90
15131;DHT22;7666;50.920;4.628;2023-04-24T02:36:48;9.40;99.90
15131;DHT22;7666;50.920;4.628;2023-04-24T02:39:34;9.40;99.90
15131;DHT22;7666;50.920;4.628;2023-04-24T02:42:20;9.30;99.90
15131;DHT22;7666;50.920;4.628;2023-04-24T02:45:07;9.40;99.90
15131;DHT22;7666;50.920;4.628;2023-04-24T02:47:53;9.40;99.90
15131;DHT22;7666;50.920;4.628;2023-04-24T02:50:39;9.30;99.90
15131;DHT22;7666;50.920;4.628;2023-04-24T02:53:25;9.30;99.90
15131;DHT22;7666;50.920;4.628;2023-04-24T02:56:11;9.30;99.90
15131;DHT22;7666;50.920;4.628;2023-04-24T02:58:58;9.30;99.90
15131;DHT22;7666;50.920;4.628;2023-04-24T03:01:44;9.30;99.90
15131;DHT22;7666;50.920;4.628;2023-04-24T03:04:30;9.30;99.90
15131;DHT22;7666;50.920;4.628;2023-04-24T03:07:16;9.30;99.90
15131;DHT22;7666;50.920;4.628;2023-04-24T03:10:02;9.20;99.90
15131;DHT22;7666;50.920;4.628;2023-04-24T03:12:48;9.20;99.90
15131;DHT22;7666;50.920;4.628;2023-04-24T03:15:34;9.20;99.90
15131;DHT22;7666;50.920;4.628;2023-04-24T03:18:20;9.20;99.90
15131;DHT22;7666;50.920;4.628;2023-04-24T03:21:06;9.20;99.90
15131;DHT22;7666;50.920;4.628;2023-04-24T03:23:52;9.20;99.90
15131;DHT22;7666;50.920;4.628;2023-04-24T03:26:38;9.20;99.90
15131;DHT22;7666;50.920;4.628;2023-04-24T03:29:24;9.20;99.90
15131;DHT22;7666;50.920;4.628;2023-04-24T03:32:10;9.20;99.90
15131;DHT22;7666;50.920;4.628;2023-04-24T03:34:56;9.20;99.90
15131;DHT22;7666;50.920;4.628;2023-04-24T03:37:42;9.20;99.90
15131;DHT22;7666;50.920;4.628;2023-04-24T03:40:28;9.20;99.90
15131;DHT22;7666;50.920;4.628;2023-04-24T03:43:15;9.20;99.90
15131;DHT22;7666;50.920;4.628;2023-04-24T03:46:01;9.20;99.90
15131;DHT22;7666;50.920;4.628;2023-04-24T03:48:47;9.20;99.90
15131;DHT22;7666;50.920;4.628;2023-04-24T03:51:33;9.20;99.90
15131;DHT22;7666;50.920;4.628;2023-04-24T03:54:20;9.20;99.90
15131;DHT22;7666;50.920;4.628;2023-04-24T03:57:06;9.20;99.90
15131;DHT22;7666;50.920;4.628;2023-04-24T03:59:51;9.10;99.90
15131;DHT22;7666;50.920;4.628;2023-04-24T04:02:39;9.10;99.90
15131;DHT22;7666;50.920;4.628;2023-04-24T04:05:25;9.10;99.90
15131;DHT22;7666;50.920;4.628;2023-04-24T04:08:11;9.10;99.90
15131;DHT22;7666;50.920;4.628;2023-04-24T04:10:57;9.10;99.90
15131;DHT22;7666;50.920;4.628;2023-04-24T04:13:43;9.10;99.90
15131;DHT22;7666;50.920;4.628;2023-04-24T04:16:29;9.10;99.90
15131;DHT22;7666;50.920;4.628;2023-04-24T04:19:15;9.10;99.90
15131;DHT22;7666;50.920;4.628;2023-04-24T04:22:01;9.10;99.90
15131;DHT22;7666;50.920;4.628;2023-04-24T04:24:47;9.10;99.90
15131;DHT22;7666;50.920;4.628;2023-04-24T04:27:33;9.10;99.90
15131;DHT22;7666;50.920;4.628;2023-04-24T04:30:20;9.10;99.90
15131;DHT22;7666;50.920;4.628;2023-04-24T04:33:06;9.00;99.90
15131;DHT22;7666;50.920;4.628;2023-04-24T04:35:53;9.00;99.90
15131;DHT22;7666;50.920;4.628;2023-04-24T04:38:42;9.10;99.90
15131;DHT22;7666;50.920;4.628;2023-04-24T04:41:28;9.10;99.90
15131;DHT22;7666;50.920;4.628;2023-04-24T04:44:14;9.10;99.90
15131;DHT22;7666;50.920;4.628;2023-04-24T04:47:00;9.10;99.90
15131;DHT22;7666;50.920;4.628;2023-04-24T04:49:49;9.00;99.90
15131;DHT22;7666;50.920;4.628;2023-04-24T04:52:37;9.00;99.90
15131;DHT22;7666;50.920;4.628;2023-04-24T04:55:23;9.00;99.90
15131;DHT22;7666;50.920;4.628;2023-04-24T04:58:09;9.00;99.90
15131;DHT22;7666;50.920;4.628;2023-04-24T05:00:55;9.00;99.90
15131;DHT22;7666;50.920;4.628;2023-04-24T05:03:43;8.90;99.90
15131;DHT22;7666;50.920;4.628;2023-04-24T05:06:29;8.90;99.90
15131;DHT22;7666;50.920;4.628;2023-04-24T05:09:16;8.90;99.90
15131;DHT22;7666;50.920;4.628;2023-04-24T05:12:02;8.90;99.90
15131;DHT22;7666;50.920;4.628;2023-04-24T05:14:49;8.90;99.90
15131;DHT22;7666;50.920;4.628;2023-04-24T05:17:35;8.80;99.90
15131;DHT22;7666;50.920;4.628;2023-04-24T05:20:21;8.90;99.90
15131;DHT22;7666;50.920;4.628;2023-04-24T05:23:07;8.80;99.90
15131;DHT22;7666;50.920;4.628;2023-04-24T05:25:53;8.80;99.90
15131;DHT22;7666;50.920;4.628;2023-04-24T05:28:39;8.80;99.90
15131;DHT22;7666;50.920;4.628;2023-04-24T05:31:26;8.80;99.90
15131;DHT22;7666;50.920;4.628;2023-04-24T05:34:12;8.80;99.90
15131;DHT22;7666;50.920;4.628;2023-04-24T05:36:58;8.80;99.90
15131;DHT22;7666;50.920;4.628;2023-04-24T05:39:44;8.80;99.90
15131;DHT22;7666;50.920;4.628;2023-04-24T05:42:30;8.80;99.90
15131;DHT22;7666;50.920;4.628;2023-04-24T05:45:16;8.70;99.90
15131;DHT22;7666;50.920;4.628;2023-04-24T05:48:03;8.70;99.90
15131;DHT22;7666;50.920;4.628;2023-04-24T05:50:49;8.70;99.90
15131;DHT22;7666;50.920;4.628;2023-04-24T05:53:35;8.70;99.90
15131;DHT22;7666;50.920;4.628;2023-04-24T05:56:21;8.70;99.90
15131;DHT22;7666;50.920;4.628;2023-04-24T05:59:08;8.70;99.90
15131;DHT22;7666;50.920;4.628;2023-04-24T06:01:54;8.70;99.90
15131;DHT22;7666;50.920;4.628;2023-04-24T06:04:40;8.70;99.90
15131;DHT22;7666;50.920;4.628;2023-04-24T06:07:27;8.70;99.90
15131;DHT22;7666;50.920;4.628;2023-04-24T06:10:13;8.70;99.90
15131;DHT22;7666;50.920;4.628;2023-04-24T06:12:59;8.70;99.90
15131;DHT22;7666;50.920;4.628;2023-04-24T06:15:46;8.70;99.90
15131;DHT22;7666;50.920;4.628;2023-04-24T06:18:32;8.70;99.90
15131;DHT22;7666;50.920;4.628;2023-04-24T06:21:18;8.70;99.90
15131;DHT22;7666;50.920;4.628;2023-04-24T06:24:04;8.70;99.90
15131;DHT22;7666;50.920;4.628;2023-04-24T06:26:53;8.70;99.90
15131;DHT22;7666;50.920;4.628;2023-04-24T06:29:39;8.70;99.90
15131;DHT22;7666;50.920;4.628;2023-04-24T06:32:25;8.70;99.90
15131;DHT22;7666;50.920;4.628;2023-04-24T06:35:11;8.70;99.90
15131;DHT22;7666;50.920;4.628;2023-04-24T06:37:58;8.70;99.90
15131;DHT22;7666;50.920;4.628;2023-04-24T06:40:43;8.70;99.90
15131;DHT22;7666;50.920;4.628;2023-04-24T06:43:30;8.70;99.90
15131;DHT22;7666;50.920;4.628;2023-04-24T06:46:16;8.70;99.90
15131;DHT22;7666;50.920;4.628;2023-04-24T06:49:02;8.70;99.90
15131;DHT22;7666;50.920;4.628;2023-04-24T06:51:48;8.70;99.90
15131;DHT22;7666;50.920;4.628;2023-04-24T06:54:34;8.70;99.90
15131;DHT22;7666;50.920;4.628;2023-04-24T06:57:20;8.70;99.90
15131;DHT22;7666;50.920;4.628;2023-04-24T07:00:07;8.80;99.90
15131;DHT22;7666;50.920;4.628;2023-04-24T07:02:55;8.80;99.90
15131;DHT22;7666;50.920;4.628;2023-04-24T07:05:43;8.90;99.90
15131;DHT22;7666;50.920;4.628;2023-04-24T07:08:33;8.90;99.90
15131;DHT22;7666;50.920;4.628;2023-04-24T07:11:19;8.90;99.90
15131;DHT22;7666;50.920;4.628;2023-04-24T07:14:06;8.90;99.90
15131;DHT22;7666;50.920;4.628;2023-04-24T07:16:52;8.90;99.90
15131;DHT22;7666;50.920;4.628;2023-04-24T07:19:38;9.00;99.90
15131;DHT22;7666;50.920;4.628;2023-04-24T07:22:24;8.90;99.90
15131;DHT22;7666;50.920;4.628;2023-04-24T07:25:10;9.00;99.90
15131;DHT22;7666;50.920;4.628;2023-04-24T07:27:56;9.00;99.90
15131;DHT22;7666;50.920;4.628;2023-04-24T07:30:42;9.00;99.90
15131;DHT22;7666;50.920;4.628;2023-04-24T07:33:28;9.00;99.90
15131;DHT22;7666;50.920;4.628;2023-04-24T07:36:15;9.10;99.90
15131;DHT22;7666;50.920;4.628;2023-04-24T07:39:05;9.10;99.90
15131;DHT22;7666;50.920;4.628;2023-04-24T07:41:51;9.10;99.90
15131;DHT22;7666;50.920;4.628;2023-04-24T07:44:37;9.10;99.90
15131;DHT22;7666;50.920;4.628;2023-04-24T07:47:23;9.10;99.90
15131;DHT22;7666;50.920;4.628;2023-04-24T07:50:10;9.10;99.90
15131;DHT22;7666;50.920;4.628;2023-04-24T07:52:56;9.10;99.90
15131;DHT22;7666;50.920;4.628;2023-04-24T07:55:42;9.20;99.90
15131;DHT22;7666;50.920;4.628;2023-04-24T07:58:28;9.20;99.90
15131;DHT22;7666;50.920;4.628;2023-04-24T08:01:13;9.20;99.90
15131;DHT22;7666;50.920;4.628;2023-04-24T08:03:59;9.30;99.90
15131;DHT22;7666;50.920;4.628;2023-04-24T08:06:47;9.50;99.90
15131;DHT22;7666;50.920;4.628;2023-04-24T08:09:33;9.70;99.90
15131;DHT22;7666;50.920;4.628;2023-04-24T08:12:19;9.80;99.90
15131;DHT22;7666;50.920;4.628;2023-04-24T08:15:06;9.90;99.90
15131;DHT22;7666;50.920;4.628;2023-04-24T08:17:52;10.00;99.90
15131;DHT22;7666;50.920;4.628;2023-04-24T08:20:38;10.00;99.90
15131;DHT22;7666;50.920;4.628;2023-04-24T08:23:24;9.90;99.90
15131;DHT22;7666;50.920;4.628;2023-04-24T08:26:10;10.00;99.90
15131;DHT22;7666;50.920;4.628;2023-04-24T08:28:56;10.10;99.90
15131;DHT22;7666;50.920;4.628;2023-04-24T08:31:42;10.10;99.90
15131;DHT22;7666;50.920;4.628;2023-04-24T08:34:28;10.20;99.90
15131;DHT22;7666;50.920;4.628;2023-04-24T08:37:14;10.00;99.90
15131;DHT22;7666;50.920;4.628;2023-04-24T08:40:05;9.90;99.90
15131;DHT22;7666;50.920;4.628;2023-04-24T08:42:54;10.10;99.90
15131;DHT22;7666;50.920;4.628;2023-04-24T08:45:40;10.30;99.90
15131;DHT22;7666;50.920;4.628;2023-04-24T08:48:26;10.60;99.90
15131;DHT22;7666;50.920;4.628;2023-04-24T08:51:13;10.80;99.90
15131;DHT22;7666;50.920;4.628;2023-04-24T08:53:59;11.00;99.90
15131;DHT22;7666;50.920;4.628;2023-04-24T08:56:48;11.20;99.90
15131;DHT22;7666;50.920;4.628;2023-04-24T08:59:34;11.30;99.90
15131;DHT22;7666;50.920;4.628;2023-04-24T09:02:21;11.10;99.90
15131;DHT22;7666;50.920;4.628;2023-04-24T09:05:09;10.80;99.90
15131;DHT22;7666;50.920;4.628;2023-04-24T09:07:56;10.60;99.90
15131;DHT22;7666;50.920;4.628;2023-04-24T09:10:42;10.40;99.90
15131;DHT22;7666;50.920;4.628;2023-04-24T09:13:29;10.30;99.90
15131;DHT22;7666;50.920;4.628;2023-04-24T09:16:16;10.20;99.90
15131;DHT22;7666;50.920;4.628;2023-04-24T09:19:02;10.20;99.90
15131;DHT22;7666;50.920;4.628;2023-04-24T09:21:49;10.40;99.90
15131;DHT22;7666;50.920;4.628;2023-04-24T09:24:35;10.80;99.90
15131;DHT22;7666;50.920;4.628;2023-04-24T09:27:23;11.30;99.90
15131;DHT22;7666;50.920;4.628;2023-04-24T09:30:10;11.70;99.90
15131;DHT22;7666;50.920;4.628;2023-04-24T09:33:10;12.00;99.90
15131;DHT22;7666;50.920;4.628;2023-04-24T09:35:56;12.20;99.90
15131;DHT22;7666;50.920;4.628;2023-04-24T09:38:42;12.20;99.90
15131;DHT22;7666;50.920;4.628;2023-04-24T09:41:28;12.00;99.90
15131;DHT22;7666;50.920;4.628;2023-04-24T09:44:17;11.80;99.90
15131;DHT22;7666;50.920;4.628;2023-04-24T09:47:03;11.40;99.90
15131;DHT22;7666;50.920;4.628;2023-04-24T09:49:58;11.10;99.90
15131;DHT22;7666;50.920;4.628;2023-04-24T09:52:46;11.00;99.90
15131;DHT22;7666;50.920;4.628;2023-04-24T09:55:32;11.00;99.90
15131;DHT22;7666;50.920;4.628;2023-04-24T09:58:18;11.40;99.90
15131;DHT22;7666;50.920;4.628;2023-04-24T10:01:10;11.70;99.90
15131;DHT22;7666;50.920;4.628;2023-04-24T10:03:56;12.10;99.90
15131;DHT22;7666;50.920;4.628;2023-04-24T10:06:42;12.60;99.90
15131;DHT22;7666;50.920;4.628;2023-04-24T10:09:28;12.40;99.90
15131;DHT22;7666;50.920;4.628;2023-04-24T10:12:14;12.10;99.90
15131;DHT22;7666;50.920;4.628;2023-04-24T10:15:02;11.90;99.90
15131;DHT22;7666;50.920;4.628;2023-04-24T10:17:50;11.70;99.90
15131;DHT22;7666;50.920;4.628;2023-04-24T10:20:40;11.60;99.90
15131;DHT22;7666;50.920;4.628;2023-04-24T10:23:26;11.50;99.90
15131;DHT22;7666;50.920;4.628;2023-04-24T10:26:16;11.50;99.90
15131;DHT22;7666;50.920;4.628;2023-04-24T10:29:05;11.60;99.90
15131;DHT22;7666;50.920;4.628;2023-04-24T10:31:55;11.70;99.90
15131;DHT22;7666;50.920;4.628;2023-04-24T10:34:41;11.60;99.90
15131;DHT22;7666;50.920;4.628;2023-04-24T10:37:28;11.70;99.90
15131;DHT22;7666;50.920;4.628;2023-04-24T10:40:18;11.60;99.90
15131;DHT22;7666;50.920;4.628;2023-04-24T10:43:06;11.80;99.90
15131;DHT22;7666;50.920;4.628;2023-04-24T10:46:01;11.80;99.90
15131;DHT22;7666;50.920;4.628;2023-04-24T10:48:57;11.80;99.90
15131;DHT22;7666;50.920;4.628;2023-04-24T10:51:51;11.60;99.90
15131;DHT22;7666;50.920;4.628;2023-04-24T10:54:44;11.50;99.90
15131;DHT22;7666;50.920;4.628;2023-04-24T10:57:30;11.50;99.90
15131;DHT22;7666;50.920;4.628;2023-04-24T11:00:20;11.50;99.90
15131;DHT22;7666;50.920;4.628;2023-04-24T11:03:22;11.70;99.90
15131;DHT22;7666;50.920;4.628;2023-04-24T11:06:09;11.80;99.90
15131;DHT22;7666;50.920;4.628;2023-04-24T11:09:10;11.90;99.90
15131;DHT22;7666;50.920;4.628;2023-04-24T11:12:11;12.00;99.90
15131;DHT22;7666;50.920;4.628;2023-04-24T11:15:00;11.80;99.90
15131;DHT22;7666;50.920;4.628;2023-04-24T11:17:46;11.80;99.90
15131;DHT22;7666;50.920;4.628;2023-04-24T11:20:32;11.80;99.90
15131;DHT22;7666;50.920;4.628;2023-04-24T11:23:18;11.90;99.90
15131;DHT22;7666;50.920;4.628;2023-04-24T11:26:21;12.10;99.90
15131;DHT22;7666;50.920;4.628;2023-04-24T11:29:08;12.20;99.90
15131;DHT22;7666;50.920;4.628;2023-04-24T11:31:54;12.80;99.90
15131;DHT22;7666;50.920;4.628;2023-04-24T11:34:46;13.00;99.90
15131;DHT22;7666;50.920;4.628;2023-04-24T11:37:40;12.80;99.90
15131;DHT22;7666;50.920;4.628;2023-04-24T11:40:26;12.70;99.90
15131;DHT22;7666;50.920;4.628;2023-04-24T11:43:12;12.90;99.90
15131;DHT22;7666;50.920;4.628;2023-04-24T11:46:01;12.60;99.90
15131;DHT22;7666;50.920;4.628;2023-04-24T11:48:47;12.30;99.90
15131;DHT22;7666;50.920;4.628;2023-04-24T11:51:34;12.20;99.90
15131;DHT22;7666;50.920;4.628;2023-04-24T11:54:20;12.00;99.90
15131;DHT22;7666;50.920;4.628;2023-04-24T11:57:06;11.90;99.90
15131;DHT22;7666;50.920;4.628;2023-04-24T11:59:52;11.90;99.90
15131;DHT22;7666;50.920;4.628;2023-04-24T12:02:38;12.20;99.90
15131;DHT22;7666;50.920;4.628;2023-04-24T12:05:26;12.40;99.90
15131;DHT22;7666;50.920;4.628;2023-04-24T12:08:29;12.50;99.90
15131;DHT22;7666;50.920;4.628;2023-04-24T12:11:16;12.40;99.90
15131;DHT22;7666;50.920;4.628;2023-04-24T12:14:11;12.40;99.90
15131;DHT22;7666;50.920;4.628;2023-04-24T12:16:57;12.70;99.90
15131;DHT22;7666;50.920;4.628;2023-04-24T12:19:49;13.10;99.90
15131;DHT22;7666;50.920;4.628;2023-04-24T12:22:44;13.20;99.90
15131;DHT22;7666;50.920;4.628;2023-04-24T12:25:32;13.20;99.90
15131;DHT22;7666;50.920;4.628;2023-04-24T12:28:18;12.90;99.90
15131;DHT22;7666;50.920;4.628;2023-04-24T12:31:04;12.70;99.90
15131;DHT22;7666;50.920;4.628;2023-04-24T12:33:51;12.60;99.90
15131;DHT22;7666;50.920;4.628;2023-04-24T12:36:37;12.60;99.90
15131;DHT22;7666;50.920;4.628;2023-04-24T12:39:23;12.40;99.90
15131;DHT22;7666;50.920;4.628;2023-04-24T12:42:13;12.30;99.90
15131;DHT22;7666;50.920;4.628;2023-04-24T12:45:01;12.30;99.90
15131;DHT22;7666;50.920;4.628;2023-04-24T12:47:48;12.30;99.90
15131;DHT22;7666;50.920;4.628;2023-04-24T12:50:34;12.40;99.90
15131;DHT22;7666;50.920;4.628;2023-04-24T12:53:20;12.40;99.90
15131;DHT22;7666;50.920;4.628;2023-04-24T12:56:06;12.40;99.90
15131;DHT22;7666;50.920;4.628;2023-04-24T12:58:52;12.70;99.90
15131;DHT22;7666;50.920;4.628;2023-04-24T13:01:39;12.90;99.90
15131;DHT22;7666;50.920;4.628;2023-04-24T13:04:25;12.80;99.90
15131;DHT22;7666;50.920;4.628;2023-04-24T13:07:11;12.60;99.90
15131;DHT22;7666;50.920;4.628;2023-04-24T13:09:57;12.60;99.90
15131;DHT22;7666;50.920;4.628;2023-04-24T13:12:43;13.10;99.90
15131;DHT22;7666;50.920;4.628;2023-04-24T13:15:31;13.40;99.90
15131;DHT22;7666;50.920;4.628;2023-04-24T13:18:17;13.70;99.90
15131;DHT22;7666;50.920;4.628;2023-04-24T13:21:03;14.10;99.90
15131;DHT22;7666;50.920;4.628;2023-04-24T13:23:49;14.30;99.90
15131;DHT22;7666;50.920;4.628;2023-04-24T13:26:35;14.50;99.90
15131;DHT22;7666;50.920;4.628;2023-04-24T13:29:21;14.50;99.90
15131;DHT22;7666;50.920;4.628;2023-04-24T13:32:08;14.10;99.90
15131;DHT22;7666;50.920;4.628;2023-04-24T13:34:54;14.10;99.90
15131;DHT22;7666;50.920;4.628;2023-04-24T13:37:41;14.30;99.90
15131;DHT22;7666;50.920;4.628;2023-04-24T13:40:27;13.80;99.90
15131;DHT22;7666;50.920;4.628;2023-04-24T13:43:13;13.40;99.90
15131;DHT22;7666;50.920;4.628;2023-04-24T13:45:59;13.50;99.90
15131;DHT22;7666;50.920;4.628;2023-04-24T13:48:47;13.40;99.90
15131;DHT22;7666;50.920;4.628;2023-04-24T13:51:33;13.20;99.90
15131;DHT22;7666;50.920;4.628;2023-04-24T13:54:20;13.20;99.90
15131;DHT22;7666;50.920;4.628;2023-04-24T13:57:06;13.20;99.90
15131;DHT22;7666;50.920;4.628;2023-04-24T13:59:52;13.30;99.90
15131;DHT22;7666;50.920;4.628;2023-04-24T14:02:38;13.30;99.90
15131;DHT22;7666;50.920;4.628;2023-04-24T14:05:24;13.10;99.90
15131;DHT22;7666;50.920;4.628;2023-04-24T14:08:10;12.90;99.90
15131;DHT22;7666;50.920;4.628;2023-04-24T14:10:56;13.20;99.90
15131;DHT22;7666;50.920;4.628;2023-04-24T14:13:42;13.50;99.90
15131;DHT22;7666;50.920;4.628;2023-04-24T14:16:29;13.80;99.90
15131;DHT22;7666;50.920;4.628;2023-04-24T14:19:16;13.80;99.90
15131;DHT22;7666;50.920;4.628;2023-04-24T14:22:02;14.00;99.90
15131;DHT22;7666;50.920;4.628;2023-04-24T14:24:48;13.90;99.90
15131;DHT22;7666;50.920;4.628;2023-04-24T14:27:34;13.80;99.90
15131;DHT22;7666;50.920;4.628;2023-04-24T14:30:20;13.80;99.90
15131;DHT22;7666;50.920;4.628;2023-04-24T14:33:06;13.40;99.90
15131;DHT22;7666;50.920;4.628;2023-04-24T14:35:52;13.40;99.90
15131;DHT22;7666;50.920;4.628;2023-04-24T14:38:38;13.40;99.90
15131;DHT22;7666;50.920;4.628;2023-04-24T14:41:24;13.10;99.90
15131;DHT22;7666;50.920;4.628;2023-04-24T14:44:10;12.80;99.90
15131;DHT22;7666;50.920;4.628;2023-04-24T14:46:56;12.70;99.90
15131;DHT22;7666;50.920;4.628;2023-04-24T14:49:42;12.70;99.90
15131;DHT22;7666;50.920;4.628;2023-04-24T14:52:29;12.80;99.90
15131;DHT22;7666;50.920;4.628;2023-04-24T14:55:15;13.00;99.90
15131;DHT22;7666;50.920;4.628;2023-04-24T14:58:02;12.90;99.90
15131;DHT22;7666;50.920;4.628;2023-04-24T15:00:48;12.90;99.90
15131;DHT22;7666;50.920;4.628;2023-04-24T15:03:37;12.80;99.90
15131;DHT22;7666;50.920;4.628;2023-04-24T15:06:23;12.60;99.90
15131;DHT22;7666;50.920;4.628;2023-04-24T15:09:10;12.40;99.90
15131;DHT22;7666;50.920;4.628;2023-04-24T15:11:57;12.30;99.90
15131;DHT22;7666;50.920;4.628;2023-04-24T15:14:43;12.30;99.90
15131;DHT22;7666;50.920;4.628;2023-04-24T15:17:29;12.40;99.90
15131;DHT22;7666;50.920;4.628;2023-04-24T15:20:15;12.40;99.90
15131;DHT22;7666;50.920;4.628;2023-04-24T15:23:01;12.40;99.90
15131;DHT22;7666;50.920;4.628;2023-04-24T15:25:48;12.30;99.90
15131;DHT22;7666;50.920;4.628;2023-04-24T15:28:34;12.40;99.90
15131;DHT22;7666;50.920;4.628;2023-04-24T15:31:19;12.50;99.90
15131;DHT22;7666;50.920;4.628;2023-04-24T15:34:06;12.60;99.90
15131;DHT22;7666;50.920;4.628;2023-04-24T15:36:52;12.60;99.90
15131;DHT22;7666;50.920;4.628;2023-04-24T15:39:38;12.60;99.90
15131;DHT22;7666;50.920;4.628;2023-04-24T15:42:24;12.40;99.90
15131;DHT22;7666;50.920;4.628;2023-04-24T15:45:10;12.30;99.90
15131;DHT22;7666;50.920;4.628;2023-04-24T15:47:57;12.30;99.90
15131;DHT22;7666;50.920;4.628;2023-04-24T15:50:43;12.20;99.90
15131;DHT22;7666;50.920;4.628;2023-04-24T15:53:29;12.20;99.90
15131;DHT22;7666;50.920;4.628;2023-04-24T15:56:15;12.20;99.90
15131;DHT22;7666;50.920;4.628;2023-04-24T15:59:01;12.20;99.90
15131;DHT22;7666;50.920;4.628;2023-04-24T16:01:48;12.20;99.90
15131;DHT22;7666;50.920;4.628;2023-04-24T16:04:34;12.10;99.90
15131;DHT22;7666;50.920;4.628;2023-04-24T16:07:20;12.00;99.90
15131;DHT22;7666;50.920;4.628;2023-04-24T16:10:07;11.90;99.90
15131;DHT22;7666;50.920;4.628;2023-04-24T16:12:53;12.00;99.90
15131;DHT22;7666;50.920;4.628;2023-04-24T16:15:39;11.90;99.90
15131;DHT22;7666;50.920;4.628;2023-04-24T16:18:26;12.00;99.90
15131;DHT22;7666;50.920;4.628;2023-04-24T16:21:12;12.00;99.90
15131;DHT22;7666;50.920;4.628;2023-04-24T16:23:58;12.10;99.90
15131;DHT22;7666;50.920;4.628;2023-04-24T16:26:44;12.20;99.90
15131;DHT22;7666;50.920;4.628;2023-04-24T16:29:30;12.20;99.90
15131;DHT22;7666;50.920;4.628;2023-04-24T16:32:17;12.20;99.90
15131;DHT22;7666;50.920;4.628;2023-04-24T16:35:03;12.10;99.90
15131;DHT22;7666;50.920;4.628;2023-04-24T16:37:49;11.90;99.90
15131;DHT22;7666;50.920;4.628;2023-04-24T16:40:35;11.90;99.90
15131;DHT22;7666;50.920;4.628;2023-04-24T16:43:21;11.90;99.90
15131;DHT22;7666;50.920;4.628;2023-04-24T16:46:07;11.90;99.90
15131;DHT22;7666;50.920;4.628;2023-04-24T16:48:53;11.90;99.90
15131;DHT22;7666;50.920;4.628;2023-04-24T16:51:40;11.90;99.90
15131;DHT22;7666;50.920;4.628;2023-04-24T16:54:26;11.90;99.90
15131;DHT22;7666;50.920;4.628;2023-04-24T16:57:13;11.80;99.90
15131;DHT22;7666;50.920;4.628;2023-04-24T16:59:59;11.70;99.90
15131;DHT22;7666;50.920;4.628;2023-04-24T17:02:45;11.70;99.90
15131;DHT22;7666;50.920;4.628;2023-04-24T17:05:33;11.70;99.90
15131;DHT22;7666;50.920;4.628;2023-04-24T17:08:19;11.70;99.90
15131;DHT22;7666;50.920;4.628;2023-04-24T17:11:05;11.80;99.90
15131;DHT22;7666;50.920;4.628;2023-04-24T17:13:51;11.90;99.90
15131;DHT22;7666;50.920;4.628;2023-04-24T17:16:37;12.00;99.90
15131;DHT22;7666;50.920;4.628;2023-04-24T17:19:24;12.00;99.90
15131;DHT22;7666;50.920;4.628;2023-04-24T17:22:11;12.00;99.90
15131;DHT22;7666;50.920;4.628;2023-04-24T17:24:57;11.90;99.90
15131;DHT22;7666;50.920;4.628;2023-04-24T17:27:43;11.80;99.90
15131;DHT22;7666;50.920;4.628;2023-04-24T17:30:30;11.70;99.90
15131;DHT22;7666;50.920;4.628;2023-04-24T17:33:16;11.70;99.90
15131;DHT22;7666;50.920;4.628;2023-04-24T17:36:02;11.60;99.90
15131;DHT22;7666;50.920;4.628;2023-04-24T17:38:48;11.50;99.90
15131;DHT22;7666;50.920;4.628;2023-04-24T17:41:34;11.30;99.90
15131;DHT22;7666;50.920;4.628;2023-04-24T17:44:20;11.00;99.90
15131;DHT22;7666;50.920;4.628;2023-04-24T17:47:06;10.90;99.90
15131;DHT22;7666;50.920;4.628;2023-04-24T17:49:52;10.80;99.90
15131;DHT22;7666;50.920;4.628;2023-04-24T17:52:38;10.70;99.90
15131;DHT22;7666;50.920;4.628;2023-04-24T17:55:24;10.70;99.90
15131;DHT22;7666;50.920;4.628;2023-04-24T17:58:11;10.60;99.90